createdAt,value
2022-11-24T00:02:20.062Z,7.90
2022-11-24T00:04:46.829Z,7.90
2022-11-24T00:07:13.748Z,7.90
2022-11-24T00:09:40.506Z,7.90
2022-11-24T00:12:07.279Z,7.90
2022-11-24T00:14:34.117Z,7.90
2022-11-24T00:17:01.126Z,7.90
2022-11-24T00:19:27.817Z,7.90
2022-11-24T00:21:54.631Z,7.80
2022-11-24T00:24:21.399Z,7.90
2022-11-24T00:26:48.135Z,7.90
2022-11-24T00:29:14.973Z,7.80
2022-11-24T00:31:42.733Z,7.80
2022-11-24T00:34:13.608Z,7.90
2022-11-24T00:36:40.600Z,7.90
2022-11-24T00:39:10.425Z,7.90
2022-11-24T00:41:37.165Z,7.90
2022-11-24T00:44:04.177Z,7.90
2022-11-24T00:46:30.945Z,7.90
2022-11-24T00:48:57.954Z,7.90
2022-11-24T00:51:27.076Z,7.90
2022-11-24T00:53:55.451Z,8.00
2022-11-24T00:56:22.131Z,8.00
2022-11-24T00:58:49.013Z,8.00
2022-11-24T01:01:17.641Z,8.00
2022-11-24T01:03:44.672Z,8.00
2022-11-24T01:06:18.173Z,8.10
2022-11-24T01:08:45.309Z,8.10
2022-11-24T01:12:01.574Z,8.10
2022-11-24T01:14:28.579Z,8.10
2022-11-24T01:16:55.381Z,8.10
2022-11-24T01:19:22.370Z,8.10
2022-11-24T01:21:49.253Z,8.10
2022-11-24T01:24:16.027Z,8.00
2022-11-24T01:26:42.776Z,8.00
2022-11-24T01:29:10.089Z,8.00
2022-11-24T01:31:37.115Z,7.90
2022-11-24T01:34:03.996Z,7.90
2022-11-24T01:36:30.746Z,7.80
2022-11-24T01:38:57.462Z,7.80
2022-11-24T01:41:25.294Z,7.80
2022-11-24T01:43:53.512Z,7.70
2022-11-24T01:46:29.399Z,7.70
2022-11-24T01:49:14.844Z,7.60
2022-11-24T01:51:57.986Z,7.60
2022-11-24T01:54:32.479Z,7.60
2022-11-24T01:57:02.599Z,7.50
2022-11-24T01:59:29.376Z,7.50
2022-11-24T02:01:56.292Z,7.50
2022-11-24T02:04:25.991Z,7.50
2022-11-24T02:06:52.689Z,7.50
2022-11-24T02:09:27.938Z,7.40
2022-11-24T02:11:55.159Z,7.40
2022-11-24T02:14:22.290Z,7.40
2022-11-24T02:16:50.068Z,7.40
2022-11-24T02:19:39.747Z,7.40
2022-11-24T02:22:22.900Z,7.30
2022-11-24T02:24:55.156Z,7.30
2022-11-24T02:27:21.970Z,7.30
2022-11-24T02:29:48.704Z,7.30
2022-11-24T02:32:15.401Z,7.20
2022-11-24T02:34:42.095Z,7.30
2022-11-24T02:37:08.900Z,7.30
2022-11-24T02:39:35.655Z,7.30
2022-11-24T02:42:05.427Z,7.30
2022-11-24T02:44:35.135Z,7.30
2022-11-24T02:47:06.919Z,7.20
2022-11-24T02:49:33.826Z,7.30
2022-11-24T02:52:00.760Z,7.30
2022-11-24T02:54:27.534Z,7.30
2022-11-24T02:56:54.324Z,7.30
2022-11-24T02:59:21.044Z,7.30
2022-11-24T03:01:47.762Z,7.30
2022-11-24T03:04:14.485Z,7.40
2022-11-24T03:06:41.298Z,7.40
2022-11-24T03:09:08.044Z,7.50
2022-11-24T03:11:34.788Z,7.50
2022-11-24T03:14:01.539Z,7.50
2022-11-24T03:16:28.233Z,7.50
2022-11-24T03:18:55.055Z,7.50
2022-11-24T03:21:21.752Z,7.50
2022-11-24T03:23:48.470Z,7.60
2022-11-24T03:26:17.605Z,7.60
2022-11-24T03:28:44.395Z,7.60
2022-11-24T03:31:11.296Z,7.60
2022-11-24T03:33:38.607Z,7.60
2022-11-24T03:36:05.735Z,7.60
2022-11-24T03:38:32.564Z,7.60
2022-11-24T03:40:59.253Z,7.60
2022-11-24T03:43:25.997Z,7.60
2022-11-24T03:45:52.733Z,7.60
2022-11-24T03:48:21.288Z,7.60
2022-11-24T03:51:00.918Z,7.60
2022-11-24T03:53:28.377Z,7.60
2022-11-24T03:55:55.101Z,7.50
2022-11-24T03:58:22.110Z,7.50
2022-11-24T04:00:49.387Z,7.50
2022-11-24T04:03:16.421Z,7.50
2022-11-24T04:05:43.159Z,7.40
2022-11-24T04:08:09.889Z,7.40
2022-11-24T04:10:37.097Z,7.40
2022-11-24T04:13:04.642Z,7.40
2022-11-24T04:15:31.340Z,7.40
2022-11-24T04:17:58.120Z,7.40
2022-11-24T04:20:25.075Z,7.40
2022-11-24T04:22:52.064Z,7.40
2022-11-24T04:25:18.810Z,7.40
2022-11-24T04:27:45.919Z,7.40
2022-11-24T04:30:12.795Z,7.30
2022-11-24T04:32:39.461Z,7.30
2022-11-24T04:35:06.593Z,7.30
2022-11-24T04:37:34.370Z,7.20
2022-11-24T04:40:01.031Z,7.20
2022-11-24T04:42:27.775Z,7.30
2022-11-24T04:44:54.448Z,7.20
2022-11-24T04:47:22.072Z,7.20
2022-11-24T04:49:49.159Z,7.20
2022-11-24T04:52:17.103Z,7.20
2022-11-24T04:54:43.925Z,7.30
2022-11-24T04:57:25.408Z,7.10
2022-11-24T04:59:52.630Z,7.20
2022-11-24T05:02:19.511Z,7.10
2022-11-24T05:04:46.402Z,7.10
2022-11-24T05:07:18.399Z,7.20
2022-11-24T05:10:05.344Z,7.20
2022-11-24T05:12:32.171Z,7.20
2022-11-24T05:14:59.835Z,7.20
2022-11-24T05:17:30.893Z,7.10
2022-11-24T05:19:57.926Z,7.10
2022-11-24T05:22:24.909Z,7.10
2022-11-24T05:24:51.624Z,7.10
2022-11-24T05:27:18.349Z,7.20
2022-11-24T05:29:45.096Z,7.20
2022-11-24T05:32:11.849Z,7.10
2022-11-24T05:34:38.534Z,7.10
2022-11-24T05:37:05.421Z,7.10
2022-11-24T05:39:35.865Z,7.10
2022-11-24T05:42:21.825Z,7.10
2022-11-24T05:44:48.538Z,7.10
2022-11-24T05:47:15.207Z,7.10
2022-11-24T05:49:41.960Z,7.10
2022-11-24T05:52:08.779Z,7.10
2022-11-24T05:54:35.800Z,7.10
2022-11-24T05:57:02.649Z,7.10
2022-11-24T05:59:29.320Z,7.10
2022-11-24T06:01:56.100Z,7.10
2022-11-24T06:04:22.888Z,7.10
2022-11-24T06:06:49.583Z,7.20
2022-11-24T06:09:16.362Z,7.20
2022-11-24T06:11:43.289Z,7.20
2022-11-24T06:14:11.446Z,7.20
2022-11-24T06:16:38.624Z,7.20
2022-11-24T06:19:05.381Z,7.20
2022-11-24T06:21:32.101Z,7.30
2022-11-24T06:23:58.917Z,7.20
2022-11-24T06:26:25.630Z,7.20
2022-11-24T06:28:52.350Z,7.20
2022-11-24T06:31:19.158Z,7.20
2022-11-24T06:33:46.040Z,7.20
2022-11-24T06:36:13.589Z,7.30
2022-11-24T06:38:40.235Z,7.30
2022-11-24T06:41:08.496Z,7.40
2022-11-24T06:43:35.372Z,7.40
2022-11-24T06:46:02.377Z,7.30
2022-11-24T06:48:29.285Z,7.40
2022-11-24T06:51:03.699Z,7.40
2022-11-24T06:53:37.709Z,7.30
2022-11-24T06:56:04.849Z,7.30
2022-11-24T06:58:31.573Z,7.30
2022-11-24T07:00:58.297Z,7.40
2022-11-24T07:03:25.121Z,7.40
2022-11-24T07:05:58.313Z,7.30
2022-11-24T07:08:25.295Z,7.40
2022-11-24T07:10:52.724Z,7.30
2022-11-24T07:13:21.368Z,7.30
2022-11-24T07:15:48.114Z,7.30
2022-11-24T07:18:14.838Z,7.30
2022-11-24T07:20:41.567Z,7.20
2022-11-24T07:23:09.120Z,7.20
2022-11-24T07:25:35.844Z,7.20
2022-11-24T07:28:02.591Z,7.20
2022-11-24T07:30:29.413Z,7.20
2022-11-24T07:32:59.837Z,7.20
2022-11-24T07:35:26.711Z,7.20
2022-11-24T07:37:59.481Z,7.20
2022-11-24T07:40:26.988Z,7.20
2022-11-24T07:42:54.175Z,7.20
2022-11-24T07:45:21.002Z,7.20
2022-11-24T07:47:47.896Z,7.40
2022-11-24T07:50:14.832Z,7.30
2022-11-24T07:52:41.530Z,7.40
2022-11-24T07:55:08.814Z,7.40
2022-11-24T07:57:35.701Z,7.50
2022-11-24T08:00:03.084Z,7.60
2022-11-24T08:02:29.752Z,7.70
2022-11-24T08:04:56.484Z,7.70
2022-11-24T08:07:23.254Z,7.70
2022-11-24T08:09:50.491Z,7.80
2022-11-24T08:12:21.440Z,7.80
2022-11-24T08:14:51.292Z,7.90
2022-11-24T08:17:18.398Z,7.90
2022-11-24T08:19:45.241Z,7.90
2022-11-24T08:22:12.033Z,8.00
2022-11-24T08:24:38.920Z,8.00
2022-11-24T08:27:05.652Z,8.00
2022-11-24T08:29:32.409Z,8.00
2022-11-24T08:31:59.210Z,8.10
2022-11-24T08:34:28.297Z,8.10
2022-11-24T08:36:55.506Z,8.20
2022-11-24T08:39:22.352Z,8.20
2022-11-24T08:41:49.128Z,8.20
2022-11-24T08:44:18.122Z,8.30
2022-11-24T08:46:45.335Z,8.20
2022-11-24T08:49:14.165Z,8.30
2022-11-24T08:51:41.178Z,8.30
2022-11-24T08:54:09.144Z,8.30
2022-11-24T08:56:36.029Z,8.40
2022-11-24T08:59:02.957Z,8.40
2022-11-24T09:01:29.893Z,8.40
2022-11-24T09:03:56.753Z,8.50
2022-11-24T09:06:25.570Z,8.50
2022-11-24T09:08:55.818Z,8.60
2022-11-24T09:11:22.667Z,8.60
2022-11-24T09:13:49.601Z,8.60
2022-11-24T09:16:18.087Z,8.70
2022-11-24T09:18:45.155Z,8.70
2022-11-24T09:21:17.289Z,8.80
2022-11-24T09:23:44.249Z,8.90
2022-11-24T09:26:18.620Z,8.90
2022-11-24T09:28:45.861Z,9.00
2022-11-24T09:31:13.483Z,9.10
2022-11-24T09:33:43.377Z,9.10
2022-11-24T09:36:10.123Z,9.10
2022-11-24T09:38:37.043Z,9.20
2022-11-24T09:41:21.980Z,9.40
2022-11-24T09:44:00.157Z,9.50
2022-11-24T09:46:28.391Z,9.50
2022-11-24T09:48:56.723Z,9.60
2022-11-24T09:51:26.493Z,9.70
2022-11-24T09:54:00.585Z,9.70
2022-11-24T09:56:30.874Z,9.80
2022-11-24T09:59:17.224Z,9.80
2022-11-24T10:01:46.998Z,9.90
2022-11-24T10:04:22.922Z,9.90
2022-11-24T10:07:01.607Z,9.90
2022-11-24T10:09:56.505Z,10.00
2022-11-24T10:13:01.912Z,10.10
2022-11-24T10:15:47.458Z,10.20
2022-11-24T10:18:41.905Z,10.30
2022-11-24T10:21:51.867Z,10.40
2022-11-24T10:24:22.201Z,10.50
2022-11-24T10:27:02.388Z,10.60
2022-11-24T10:29:33.242Z,10.60
2022-11-24T10:32:00.169Z,10.60
2022-11-24T10:34:35.727Z,10.70
2022-11-24T10:37:05.213Z,10.70
2022-11-24T10:39:42.110Z,10.70
2022-11-24T10:42:24.271Z,10.70
2022-11-24T10:45:00.257Z,10.70
2022-11-24T10:47:27.299Z,10.70
2022-11-24T10:50:05.226Z,10.80
2022-11-24T10:52:38.882Z,10.90
2022-11-24T10:55:08.597Z,11.00
2022-11-24T10:57:39.776Z,11.00
2022-11-24T11:00:18.544Z,11.00
2022-11-24T11:02:45.891Z,11.10
2022-11-24T11:05:31.503Z,11.10
2022-11-24T11:08:19.484Z,11.20
2022-11-24T11:10:47.335Z,11.30
2022-11-24T11:13:24.313Z,11.40
2022-11-24T11:15:51.177Z,11.40
2022-11-24T11:18:18.773Z,11.40
2022-11-24T11:20:55.848Z,11.50
2022-11-24T11:23:28.095Z,11.50
2022-11-24T11:26:18.659Z,11.60
2022-11-24T11:28:57.197Z,11.60
2022-11-24T11:31:25.177Z,11.60
2022-11-24T11:34:06.450Z,11.60
2022-11-24T11:36:56.112Z,11.70
2022-11-24T11:39:36.597Z,11.60
2022-11-24T11:45:43.206Z,11.70
2022-11-24T11:48:42.245Z,11.80
2022-11-24T11:51:47.048Z,11.90
2022-11-24T11:54:26.950Z,12.00
2022-11-24T11:57:10.838Z,12.00
2022-11-24T12:00:16.432Z,12.00
2022-11-24T12:02:53.420Z,12.10
2022-11-24T12:06:02.266Z,12.20
2022-11-24T12:09:03.190Z,12.30
2022-11-24T12:11:24.618Z,12.30
2022-11-24T12:14:20.755Z,12.20
2022-11-24T12:17:05.279Z,12.30
2022-11-24T12:20:03.725Z,12.30
2022-11-24T12:23:01.393Z,12.30
2022-11-24T12:25:49.723Z,12.30
2022-11-24T12:28:44.433Z,12.40
2022-11-24T12:31:14.402Z,12.30
2022-11-24T12:34:15.416Z,12.30
2022-11-24T12:36:48.073Z,12.40
2022-11-24T12:39:26.045Z,12.40
2022-11-24T12:42:01.704Z,12.50
2022-11-24T12:44:47.529Z,12.50
2022-11-24T12:47:17.843Z,12.60
2022-11-24T12:49:53.800Z,12.60
2022-11-24T12:52:29.775Z,12.60
2022-11-24T12:54:56.497Z,12.60
2022-11-24T12:58:17.413Z,12.70
2022-11-24T13:01:16.777Z,12.70
2022-11-24T13:03:58.580Z,12.70
2022-11-24T13:06:53.007Z,12.80
2022-11-24T13:09:20.061Z,12.80
2022-11-24T13:11:56.750Z,12.80
2022-11-24T13:14:36.437Z,12.90
2022-11-24T13:19:53.852Z,12.90
2022-11-24T13:22:25.118Z,12.90
2022-11-24T13:25:29.733Z,12.90
2022-11-24T13:28:00.229Z,12.90
2022-11-24T13:30:36.095Z,12.90
2022-11-24T13:33:03.163Z,12.80
2022-11-24T13:35:30.599Z,12.80
2022-11-24T13:37:57.686Z,12.80
2022-11-24T13:40:26.432Z,12.80
2022-11-24T13:43:01.362Z,12.80
2022-11-24T13:45:46.809Z,12.80
2022-11-24T13:48:20.768Z,12.70
2022-11-24T13:50:51.314Z,12.70
2022-11-24T13:53:34.884Z,12.70
2022-11-24T13:56:07.339Z,12.70
2022-11-24T13:58:37.691Z,12.70
2022-11-24T14:01:28.356Z,12.70
2022-11-24T14:06:52.597Z,12.50
2022-11-24T14:09:32.563Z,12.50
2022-11-24T14:12:12.669Z,12.50
2022-11-24T14:14:39.908Z,12.50
2022-11-24T14:17:23.164Z,12.50
2022-11-24T14:19:55.050Z,12.40
2022-11-24T14:22:26.831Z,12.50
2022-11-24T14:24:58.805Z,12.50
2022-11-24T14:27:31.515Z,12.30
2022-11-24T14:29:59.833Z,12.20
2022-11-24T14:32:26.647Z,12.00
2022-11-24T14:34:54.496Z,12.00
2022-11-24T14:37:21.448Z,12.00
2022-11-24T14:39:48.131Z,12.00
2022-11-24T14:42:30.220Z,12.00
2022-11-24T14:45:00.330Z,12.00
2022-11-24T14:47:36.397Z,12.10
2022-11-24T14:50:09.834Z,12.10
2022-11-24T14:52:36.827Z,12.10
2022-11-24T14:55:21.923Z,12.20
2022-11-24T14:57:49.817Z,12.20
2022-11-24T15:00:21.138Z,12.20
2022-11-24T15:03:17.558Z,12.20
2022-11-24T15:05:58.404Z,12.20
2022-11-24T15:08:31.682Z,12.20
2022-11-24T15:11:03.413Z,12.30
2022-11-24T15:13:35.257Z,12.30
2022-11-24T15:16:03.889Z,12.30
2022-11-24T15:18:42.092Z,12.40
2022-11-24T15:21:11.751Z,12.40
2022-11-24T15:23:42.955Z,12.40
2022-11-24T15:26:12.888Z,12.40
2022-11-24T15:28:40.113Z,12.40
2022-11-24T15:31:11.088Z,12.40
2022-11-24T15:33:38.202Z,12.40
2022-11-24T15:36:05.268Z,12.40
2022-11-24T15:38:32.456Z,12.50
2022-11-24T15:41:00.264Z,12.50
2022-11-24T15:43:39.527Z,12.40
2022-11-24T15:46:06.885Z,12.40
2022-11-24T15:48:33.742Z,12.40
2022-11-24T15:51:02.461Z,12.40
2022-11-24T15:53:40.572Z,12.50
2022-11-24T15:56:10.802Z,12.50
2022-11-24T15:58:37.575Z,12.50
2022-11-24T16:01:04.387Z,12.50
2022-11-24T16:03:48.208Z,12.50
2022-11-24T16:06:23.763Z,12.50
2022-11-24T16:08:52.085Z,12.50
2022-11-24T16:11:18.791Z,12.40
2022-11-24T16:13:51.554Z,12.20
2022-11-24T16:16:19.495Z,11.90
2022-11-24T16:18:46.405Z,11.80
2022-11-24T16:21:14.816Z,11.60
2022-11-24T16:23:41.589Z,11.50
2022-11-24T16:26:08.380Z,11.30
2022-11-24T16:28:35.081Z,11.10
2022-11-24T16:31:01.783Z,11.00
2022-11-24T16:33:29.690Z,10.90
2022-11-24T16:35:56.401Z,10.90
2022-11-24T16:38:23.148Z,10.80
2022-11-24T16:40:59.178Z,10.80
2022-11-24T16:43:25.893Z,10.70
2022-11-24T16:46:06.092Z,10.70
2022-11-24T16:48:36.140Z,10.70
2022-11-24T16:51:10.018Z,10.70
2022-11-24T16:53:37.139Z,10.70
2022-11-24T16:56:03.979Z,10.60
2022-11-24T16:58:31.776Z,10.60
2022-11-24T17:01:10.637Z,10.50
2022-11-24T17:03:37.654Z,10.50
2022-11-24T17:06:05.642Z,10.40
2022-11-24T17:08:33.403Z,10.30
2022-11-24T17:11:10.494Z,10.30
2022-11-24T17:13:37.443Z,10.20
2022-11-24T17:16:07.105Z,10.20
2022-11-24T17:18:33.988Z,10.20
2022-11-24T17:21:06.030Z,10.20
2022-11-24T17:23:36.172Z,10.20
2022-11-24T17:26:03.792Z,10.20
2022-11-24T17:28:30.551Z,10.20
2022-11-24T17:30:57.404Z,10.20
2022-11-24T17:33:24.217Z,10.20
2022-11-24T17:35:51.193Z,10.20
2022-11-24T17:38:17.890Z,10.20
2022-11-24T17:40:48.292Z,10.20
2022-11-24T17:43:15.018Z,10.30
2022-11-24T17:45:41.828Z,10.20
2022-11-24T17:48:09.527Z,10.20
2022-11-24T17:50:36.322Z,10.20
2022-11-24T17:53:03.090Z,10.20
2022-11-24T17:55:29.895Z,10.10
2022-11-24T17:57:57.090Z,10.10
2022-11-24T18:00:24.005Z,10.00
2022-11-24T18:02:50.763Z,10.00
2022-11-24T18:05:17.550Z,10.00
2022-11-24T18:07:44.452Z,10.00
2022-11-24T18:10:11.514Z,9.90
2022-11-24T18:12:40.262Z,9.90
2022-11-24T18:15:07.716Z,9.90
2022-11-24T18:17:34.684Z,9.90
2022-11-24T18:20:01.701Z,9.90
2022-11-24T18:23:04.618Z,9.90
2022-11-24T18:25:15.107Z,9.80
2022-11-24T18:27:41.861Z,9.80
2022-11-24T18:30:08.934Z,9.80
2022-11-24T18:32:35.851Z,9.90
2022-11-24T18:35:02.899Z,9.90
2022-11-24T18:37:33.174Z,9.90
2022-11-24T18:40:00.240Z,9.90
2022-11-24T18:42:28.158Z,9.80
2022-11-24T18:44:56.662Z,9.80
2022-11-24T18:47:23.467Z,9.80
2022-11-24T18:49:50.223Z,9.80
2022-11-24T18:52:16.931Z,9.80
2022-11-24T18:54:43.583Z,9.80
2022-11-24T18:57:10.434Z,9.70
2022-11-24T18:59:37.226Z,9.70
2022-11-24T19:02:03.987Z,9.70
2022-11-24T19:04:30.837Z,9.70
2022-11-24T19:06:57.495Z,9.70
2022-11-24T19:09:25.471Z,9.70
2022-11-24T19:11:53.578Z,9.60
2022-11-24T19:14:20.440Z,9.70
2022-11-24T19:16:48.086Z,9.60
2022-11-24T19:19:15.114Z,9.60
2022-11-24T19:21:41.932Z,9.60
2022-11-24T19:24:13.157Z,9.60
2022-11-24T19:26:40.039Z,9.60
2022-11-24T19:29:07.071Z,9.60
2022-11-24T19:31:34.268Z,9.70
2022-11-24T19:34:02.974Z,9.60
2022-11-24T19:36:30.011Z,9.70
2022-11-24T19:38:57.133Z,9.70
2022-11-24T19:41:28.526Z,9.70
2022-11-24T19:43:55.345Z,9.70
2022-11-24T19:46:22.582Z,9.70
2022-11-24T19:48:50.407Z,9.70
2022-11-24T19:51:37.111Z,9.70
2022-11-24T19:54:04.590Z,9.80
2022-11-24T19:56:34.066Z,9.80
2022-11-24T19:59:01.057Z,9.80
2022-11-24T20:01:29.276Z,9.90
2022-11-24T20:04:00.645Z,9.90
2022-11-24T20:06:28.947Z,9.90
2022-11-24T20:08:56.890Z,9.90
2022-11-24T20:11:24.915Z,9.90
2022-11-24T20:13:51.783Z,9.90
2022-11-24T20:16:20.201Z,9.90
2022-11-24T20:18:47.684Z,9.90
2022-11-24T20:21:19.111Z,9.80
2022-11-24T20:23:46.923Z,9.80
2022-11-24T20:26:15.561Z,9.80
2022-11-24T20:28:42.443Z,9.80
2022-11-24T20:31:11.235Z,9.80
2022-11-24T20:33:38.401Z,9.70
2022-11-24T20:36:22.018Z,9.70
2022-11-24T20:38:52.010Z,9.70
2022-11-24T20:41:25.879Z,9.70
2022-11-24T20:43:53.133Z,9.70
2022-11-24T20:46:21.687Z,9.70
2022-11-24T20:48:48.488Z,9.60
2022-11-24T20:51:22.835Z,9.60
2022-11-24T20:53:54.257Z,9.60
2022-11-24T20:56:22.721Z,9.60
2022-11-24T20:58:49.480Z,9.60
2022-11-24T21:01:20.669Z,9.50
2022-11-24T21:03:47.933Z,9.50
2022-11-24T21:06:14.944Z,9.50
2022-11-24T21:08:43.750Z,9.50
2022-11-24T21:11:11.891Z,9.40
2022-11-24T21:13:39.352Z,9.40
2022-11-24T21:16:16.333Z,9.40
2022-11-24T21:18:43.610Z,9.40
2022-11-24T21:21:10.646Z,9.40
2022-11-24T21:23:37.358Z,9.30
2022-11-24T21:26:07.405Z,9.30
2022-11-24T21:28:35.784Z,9.30
2022-11-24T21:31:04.642Z,9.30
2022-11-24T21:33:31.462Z,9.30
2022-11-24T21:36:12.558Z,9.20
2022-11-24T21:38:39.256Z,9.20
2022-11-24T21:41:06.923Z,9.20
2022-11-24T21:43:33.920Z,9.10
2022-11-24T21:46:01.837Z,9.10
2022-11-24T21:48:29.503Z,9.20
2022-11-24T21:50:58.146Z,9.00
2022-11-24T21:53:25.330Z,9.00
2022-11-24T21:55:58.966Z,9.00
2022-11-24T21:58:25.863Z,9.00
2022-11-24T22:00:52.753Z,8.90
2022-11-24T22:03:19.884Z,8.90
2022-11-24T22:05:56.713Z,8.90
2022-11-24T22:08:24.105Z,8.90
2022-11-24T22:10:50.931Z,8.80
2022-11-24T22:13:17.693Z,8.80
2022-11-24T22:15:44.676Z,8.80
2022-11-24T22:18:12.180Z,8.80
2022-11-24T22:20:39.181Z,8.80
2022-11-24T22:23:06.091Z,8.70
2022-11-24T22:25:33.599Z,8.80
2022-11-24T22:28:00.413Z,8.70
2022-11-24T22:30:27.207Z,8.70
2022-11-24T22:32:54.503Z,8.70
2022-11-24T22:35:21.597Z,8.70
2022-11-24T22:37:48.439Z,8.60
2022-11-24T22:40:15.273Z,8.60
2022-11-24T22:42:42.130Z,8.70
2022-11-24T22:45:09.462Z,8.70
2022-11-24T22:47:36.131Z,8.70
2022-11-24T22:50:02.883Z,8.70
2022-11-24T22:52:29.655Z,8.80
2022-11-24T22:54:59.387Z,8.80
2022-11-24T22:57:26.245Z,8.80
2022-11-24T22:59:52.921Z,8.80
2022-11-24T23:02:19.664Z,8.80
2022-11-24T23:04:46.377Z,8.80
2022-11-24T23:07:13.177Z,8.90
2022-11-24T23:09:39.889Z,8.80
2022-11-24T23:12:06.807Z,8.80
2022-11-24T23:14:33.669Z,8.80
2022-11-24T23:17:00.733Z,8.80
2022-11-24T23:19:28.036Z,8.90
2022-11-24T23:21:54.722Z,8.90
2022-11-24T23:24:21.432Z,8.80
2022-11-24T23:26:48.245Z,8.80
2022-11-24T23:29:14.939Z,8.80
2022-11-24T23:31:41.740Z,8.80
2022-11-24T23:34:08.576Z,8.70
2022-11-24T23:36:35.346Z,8.70
2022-11-24T23:39:03.695Z,8.70
2022-11-24T23:41:30.740Z,8.70
2022-11-24T23:43:57.621Z,8.70
2022-11-24T23:46:25.111Z,8.70
2022-11-24T23:48:52.825Z,8.70
2022-11-24T23:51:21.917Z,8.80
2022-11-24T23:53:48.852Z,8.80
2022-11-24T23:56:19.254Z,8.80
2022-11-24T23:58:46.059Z,8.80
